Time;durP1;ratioP1;P1;durP2;ratioP2;P2;SDS_P1;SDS_P2;PMS_P1;PMS_P2;Temp;Humidity;BMP_temperature;BMP_pressure;BME280_temperature;BME280_humidity;BME280_pressure;Samples;Min_cycle;Max_cycle;Signal;HPM_P1;HPM_P2
2021/10/22 00:02:17;;;;;;;12.13;2.92;;;;;;;;;;5031246;28;20202;-76
2021/10/22 00:04:43;;;;;;;9.23;2.92;;;;;;;;;;5033025;28;20174;-75
2021/10/22 00:07:10;;;;;;;13.70;3.38;;;;;;;;;;5032979;28;20178;-73
2021/10/22 00:09:36;;;;;;;9.18;2.70;;;;;;;;;;5032900;28;20234;-73
2021/10/22 00:12:02;;;;;;;14.93;3.60;;;;;;;;;;5032187;28;20202;-76
2021/10/22 00:14:28;;;;;;;11.90;3.70;;;;;;;;;;5036556;28;20569;-74
2021/10/22 00:16:54;;;;;;;13.13;3.40;;;;;;;;;;5035480;28;20269;-74
2021/10/22 00:19:20;;;;;;;15.98;3.78;;;;;;;;;;5035123;28;20937;-75
2021/10/22 00:21:46;;;;;;;13.98;3.22;;;;;;;;;;5036099;28;20194;-74
2021/10/22 00:24:12;;;;;;;20.80;4.35;;;;;;;;;;5036218;28;20579;-76
2021/10/22 00:26:38;;;;;;;13.23;3.23;;;;;;;;;;5036543;28;20184;-76
2021/10/22 00:29:05;;;;;;;10.18;3.40;;;;;;;;;;5036502;28;20420;-74
2021/10/22 00:31:31;;;;;;;15.45;3.88;;;;;;;;;;5035985;28;20275;-75
2021/10/22 00:33:57;;;;;;;10.23;3.40;;;;;;;;;;5036280;28;20174;-76
2021/10/22 00:36:24;;;;;;;8.70;2.78;;;;;;;;;;5035993;28;20623;-74
2021/10/22 00:38:50;;;;;;;6.72;2.60;;;;;;;;;;5035063;28;20181;-74
2021/10/22 00:41:17;;;;;;;12.30;3.00;;;;;;;;;;5035627;28;20267;-74
2021/10/22 00:43:43;;;;;;;8.32;2.58;;;;;;;;;;5036054;28;20174;-74
2021/10/22 00:46:09;;;;;;;10.80;3.17;;;;;;;;;;5034713;28;20170;-75
2021/10/22 00:48:36;;;;;;;12.25;3.92;;;;;;;;;;5035766;28;20183;-75
2021/10/22 00:51:02;;;;;;;20.15;3.00;;;;;;;;;;5034175;28;20194;-73
2021/10/22 00:53:28;;;;;;;11.38;3.35;;;;;;;;;;5035860;28;20257;-76
2021/10/22 00:55:55;;;;;;;13.93;2.45;;;;;;;;;;5034761;28;20178;-74
2021/10/22 00:58:22;;;;;;;19.85;3.80;;;;;;;;;;5035597;28;20182;-76
2021/10/22 01:00:48;;;;;;;9.70;2.53;;;;;;;;;;5035651;28;20202;-74
2021/10/22 01:03:15;;;;;;;9.85;2.55;;;;;;;;;;5035346;28;20205;-76
2021/10/22 01:05:41;;;;;;;10.00;3.25;;;;;;;;;;5035761;28;20170;-73
2021/10/22 01:08:07;;;;;;;8.60;3.35;;;;;;;;;;5035779;28;20174;-73
2021/10/22 01:10:34;;;;;;;9.05;3.50;;;;;;;;;;5035476;28;20632;-75
2021/10/22 01:13:00;;;;;;;10.23;3.33;;;;;;;;;;5035309;28;20332;-73
2021/10/22 01:15:26;;;;;;;9.63;3.40;;;;;;;;;;5035693;28;20177;-75
2021/10/22 01:17:52;;;;;;;12.15;3.25;;;;;;;;;;5035558;28;20194;-75
2021/10/22 01:20:20;;;;;;;14.73;2.93;;;;;;;;;;5035291;28;20555;-75
2021/10/22 01:22:47;;;;;;;15.43;3.78;;;;;;;;;;5035057;28;20785;-73
2021/10/22 01:25:14;;;;;;;15.70;2.92;;;;;;;;;;5034685;28;20574;-75
2021/10/22 01:27:41;;;;;;;9.40;3.13;;;;;;;;;;5035406;28;20159;-76
2021/10/22 01:30:08;;;;;;;14.73;2.97;;;;;;;;;;5035466;28;20188;-76
2021/10/22 01:32:34;;;;;;;11.45;2.75;;;;;;;;;;5034728;28;20194;-74
2021/10/22 01:35:01;;;;;;;8.80;2.83;;;;;;;;;;5033816;28;20212;-73
2021/10/22 01:37:27;;;;;;;18.85;3.20;;;;;;;;;;5035053;28;20236;-72
2021/10/22 01:39:53;;;;;;;21.50;3.63;;;;;;;;;;5034924;28;20208;-76
2021/10/22 01:42:19;;;;;;;8.85;2.60;;;;;;;;;;5034681;28;20202;-74
2021/10/22 01:44:45;;;;;;;16.20;2.90;;;;;;;;;;5034786;28;20169;-72
2021/10/22 01:47:12;;;;;;;9.85;3.28;;;;;;;;;;5034870;28;20174;-75
2021/10/22 01:49:38;;;;;;;13.77;3.65;;;;;;;;;;5034842;28;20175;-72
2021/10/22 01:52:04;;;;;;;14.68;3.60;;;;;;;;;;5034382;28;20194;-75
2021/10/22 01:54:30;;;;;;;15.63;3.60;;;;;;;;;;5034710;28;20179;-74
2021/10/22 01:56:57;;;;;;;15.27;4.40;;;;;;;;;;5034568;28;20186;-72
2021/10/22 01:59:23;;;;;;;11.13;2.95;;;;;;;;;;5034585;28;20182;-75
2021/10/22 02:01:49;;;;;;;18.40;3.90;;;;;;;;;;5034273;28;20205;-72
2021/10/22 02:04:15;;;;;;;24.08;6.25;;;;;;;;;;5034636;28;20178;-75
2021/10/22 02:06:41;;;;;;;15.83;2.90;;;;;;;;;;5034800;28;20681;-73
2021/10/22 02:09:07;;;;;;;13.30;3.90;;;;;;;;;;5034533;28;20508;-76
2021/10/22 02:11:33;;;;;;;9.48;3.20;;;;;;;;;;5034252;28;20428;-74
2021/10/22 02:13:59;;;;;;;11.20;3.70;;;;;;;;;;5034428;28;20191;-76
2021/10/22 02:16:25;;;;;;;19.00;4.30;;;;;;;;;;5034507;28;20412;-75
2021/10/22 02:18:51;;;;;;;17.60;3.93;;;;;;;;;;5034296;28;20194;-74
2021/10/22 02:21:17;;;;;;;15.02;3.60;;;;;;;;;;5033792;28;20501;-75
2021/10/22 02:23:43;;;;;;;11.27;3.78;;;;;;;;;;5034271;28;20174;-74
2021/10/22 02:26:09;;;;;;;13.88;2.97;;;;;;;;;;5034230;28;20180;-74
2021/10/22 02:28:35;;;;;;;17.40;4.82;;;;;;;;;;5034031;28;20204;-73
2021/10/22 02:31:01;;;;;;;11.57;3.65;;;;;;;;;;5033765;28;20185;-76
2021/10/22 02:33:27;;;;;;;16.02;4.50;;;;;;;;;;5033864;28;20202;-74
2021/10/22 02:35:53;;;;;;;7.27;3.90;;;;;;;;;;5033322;28;20222;-71
2021/10/22 02:38:20;;;;;;;18.40;3.78;;;;;;;;;;5033763;28;20411;-74
2021/10/22 02:40:46;;;;;;;13.38;3.10;;;;;;;;;;5033860;28;20195;-75
2021/10/22 02:43:12;;;;;;;10.45;3.40;;;;;;;;;;5033259;28;20240;-74
2021/10/22 02:45:38;;;;;;;12.93;3.15;;;;;;;;;;5033698;28;20183;-73
2021/10/22 02:48:04;;;;;;;11.17;3.17;;;;;;;;;;5033680;28;20182;-75
2021/10/22 02:50:30;;;;;;;18.63;3.53;;;;;;;;;;5033711;28;20425;-72
2021/10/22 02:52:59;;;;;;;9.25;3.03;;;;;;;;;;5033357;28;20437;-75
2021/10/22 02:55:25;;;;;;;11.20;3.15;;;;;;;;;;5033405;28;20187;-76
2021/10/22 02:57:51;;;;;;;11.93;2.80;;;;;;;;;;5033843;28;20265;-76
2021/10/22 03:00:17;;;;;;;9.83;3.43;;;;;;;;;;5033711;28;20210;-74
2021/10/22 03:02:45;;;;;;;9.27;3.30;;;;;;;;;;5032158;28;20800;-74
2021/10/22 03:05:11;;;;;;;11.43;3.05;;;;;;;;;;5033459;28;20977;-75
2021/10/22 03:07:38;;;;;;;9.23;2.85;;;;;;;;;;5032182;28;20174;-76
2021/10/22 03:10:07;;;;;;;9.50;3.20;;;;;;;;;;5033464;28;20192;-77
2021/10/22 03:12:35;;;;;;;12.32;3.53;;;;;;;;;;5033026;28;20190;-77
2021/10/22 03:15:01;;;;;;;9.30;3.22;;;;;;;;;;5033231;28;20187;-74
2021/10/22 03:17:27;;;;;;;12.60;3.70;;;;;;;;;;5032947;28;20178;-77
2021/10/22 03:19:53;;;;;;;12.68;3.83;;;;;;;;;;5033254;28;20273;-75
2021/10/22 03:22:19;;;;;;;16.93;3.63;;;;;;;;;;5031543;28;20738;-73
2021/10/22 03:24:45;;;;;;;10.55;3.85;;;;;;;;;;5033164;28;20415;-75
2021/10/22 03:27:14;;;;;;;13.40;3.80;;;;;;;;;;5032314;28;20272;-75
2021/10/22 03:29:40;;;;;;;13.20;3.20;;;;;;;;;;5033127;28;20180;-77
2021/10/22 03:32:06;;;;;;;23.65;5.25;;;;;;;;;;5032825;28;20231;-77
2021/10/22 03:34:32;;;;;;;16.10;3.83;;;;;;;;;;5033179;28;20189;-74
2021/10/22 03:36:58;;;;;;;11.93;3.30;;;;;;;;;;5031907;28;20185;-78
2021/10/22 03:39:24;;;;;;;17.60;3.88;;;;;;;;;;5031862;28;20267;-76
2021/10/22 03:41:50;;;;;;;10.50;3.90;;;;;;;;;;5032587;28;20226;-76
2021/10/22 03:44:16;;;;;;;14.73;4.53;;;;;;;;;;5031787;28;20260;-77
2021/10/22 03:46:42;;;;;;;8.63;2.97;;;;;;;;;;5032900;28;20423;-76
2021/10/22 03:49:08;;;;;;;22.30;4.00;;;;;;;;;;5036471;28;20462;-75
2021/10/22 03:51:34;;;;;;;12.80;3.90;;;;;;;;;;5036648;28;20881;-75
2021/10/22 03:54:00;;;;;;;19.23;3.83;;;;;;;;;;5036882;28;20424;-76
2021/10/22 03:56:26;;;;;;;7.22;3.13;;;;;;;;;;5037047;28;20416;-76
2021/10/22 03:58:52;;;;;;;16.08;3.40;;;;;;;;;;5036941;28;20178;-74
2021/10/22 04:01:18;;;;;;;12.93;2.57;;;;;;;;;;5036392;28;20618;-74
2021/10/22 04:03:45;;;;;;;7.00;3.35;;;;;;;;;;5036827;28;20766;-74
2021/10/22 04:06:11;;;;;;;11.70;3.28;;;;;;;;;;5036747;28;20556;-76
2021/10/22 04:08:37;;;;;;;16.52;3.00;;;;;;;;;;5036797;28;20172;-74
2021/10/22 04:11:03;;;;;;;16.25;3.85;;;;;;;;;;5035198;28;20216;-77
2021/10/22 04:13:30;;;;;;;11.55;3.28;;;;;;;;;;5036708;28;20182;-73
2021/10/22 04:15:56;;;;;;;12.95;3.35;;;;;;;;;;5036529;28;20183;-77
2021/10/22 04:18:22;;;;;;;9.75;3.17;;;;;;;;;;5036578;28;20296;-74
2021/10/22 04:20:48;;;;;;;12.38;3.83;;;;;;;;;;5036528;28;20285;-74
2021/10/22 04:23:14;;;;;;;7.97;3.10;;;;;;;;;;5036225;28;20182;-76
2021/10/22 04:25:40;;;;;;;11.40;3.70;;;;;;;;;;5036497;28;20176;-75
2021/10/22 04:28:07;;;;;;;16.67;4.40;;;;;;;;;;5036211;28;20774;-75
2021/10/22 04:30:33;;;;;;;10.10;2.97;;;;;;;;;;5035026;28;20269;-75
2021/10/22 04:32:59;;;;;;;8.10;3.07;;;;;;;;;;5035746;28;20285;-76
2021/10/22 04:35:25;;;;;;;11.35;2.95;;;;;;;;;;5034962;28;20428;-75
2021/10/22 04:40:33;;;;;;;11.95;2.97;;;;;;;;;;5036081;28;20210;-75
2021/10/22 04:43:06;;;;;;;12.68;3.22;;;;;;;;;;5035890;28;20208;-75
2021/10/22 04:45:33;;;;;;;13.35;3.70;;;;;;;;;;5036114;28;20640;-74
2021/10/22 04:48:01;;;;;;;17.00;3.85;;;;;;;;;;5035981;28;20186;-75
2021/10/22 04:50:27;;;;;;;14.63;4.25;;;;;;;;;;5035865;28;20611;-74
2021/10/22 04:52:54;;;;;;;8.38;3.50;;;;;;;;;;5035562;28;20201;-76
2021/10/22 04:55:20;;;;;;;8.75;3.20;;;;;;;;;;5034527;28;20224;-75
2021/10/22 04:57:46;;;;;;;14.35;3.80;;;;;;;;;;5035852;28;20190;-74
2021/10/22 05:00:13;;;;;;;8.98;4.03;;;;;;;;;;5034447;28;20202;-74
2021/10/22 05:02:38;;;;;;;12.90;3.53;;;;;;;;;;5035280;28;20248;-77
2021/10/22 05:05:05;;;;;;;17.60;4.13;;;;;;;;;;5035908;28;20182;-76
2021/10/22 05:07:31;;;;;;;9.52;3.95;;;;;;;;;;5035695;28;20405;-75
2021/10/22 05:09:57;;;;;;;10.75;4.10;;;;;;;;;;5035599;28;20670;-75
2021/10/22 05:12:24;;;;;;;11.15;2.60;;;;;;;;;;5034902;28;20267;-76
2021/10/22 05:14:50;;;;;;;8.25;2.90;;;;;;;;;;5035525;28;20182;-74
2021/10/22 05:17:16;;;;;;;10.30;3.03;;;;;;;;;;5035275;28;20261;-75
2021/10/22 05:19:42;;;;;;;9.35;3.35;;;;;;;;;;5035447;28;20200;-76
2021/10/22 05:22:08;;;;;;;13.00;4.13;;;;;;;;;;5033760;28;20553;-77
2021/10/22 05:24:34;;;;;;;12.25;3.45;;;;;;;;;;5035153;28;20189;-71
2021/10/22 05:27:00;;;;;;;11.98;3.83;;;;;;;;;;5034096;28;20174;-73
2021/10/22 05:29:26;;;;;;;12.25;3.50;;;;;;;;;;5035573;28;20257;-75
2021/10/22 05:31:52;;;;;;;13.00;4.32;;;;;;;;;;5034758;28;20236;-77
2021/10/22 05:34:21;;;;;;;6.93;3.25;;;;;;;;;;5035202;28;20174;-72
2021/10/22 05:36:49;;;;;;;10.77;3.10;;;;;;;;;;5034947;28;20177;-78
2021/10/22 05:39:16;;;;;;;9.82;3.25;;;;;;;;;;5033783;28;20193;-77
2021/10/22 05:41:42;;;;;;;10.30;3.75;;;;;;;;;;5034750;28;20601;-75
2021/10/22 05:44:08;;;;;;;13.45;4.07;;;;;;;;;;5034921;28;20176;-75
2021/10/22 05:46:34;;;;;;;12.27;3.75;;;;;;;;;;5034881;28;20174;-76
2021/10/22 05:49:00;;;;;;;14.75;4.00;;;;;;;;;;5034729;28;20180;-74
2021/10/22 05:51:26;;;;;;;8.70;3.20;;;;;;;;;;5034421;28;20202;-78
2021/10/22 05:53:53;;;;;;;17.02;4.00;;;;;;;;;;5033460;28;20550;-76
2021/10/22 05:56:19;;;;;;;14.20;3.88;;;;;;;;;;5034681;28;20184;-76
2021/10/22 05:58:45;;;;;;;9.07;4.35;;;;;;;;;;5034528;28;20194;-78
2021/10/22 06:01:12;;;;;;;7.63;2.75;;;;;;;;;;5034070;28;20707;-76
2021/10/22 06:03:38;;;;;;;15.85;3.80;;;;;;;;;;5034538;28;20175;-76
2021/10/22 06:06:04;;;;;;;15.80;3.55;;;;;;;;;;5033334;28;20178;-76
2021/10/22 06:08:30;;;;;;;12.98;3.25;;;;;;;;;;5034377;28;20171;-76
2021/10/22 06:10:57;;;;;;;9.13;3.20;;;;;;;;;;5033788;28;20231;-72
2021/10/22 06:13:23;;;;;;;8.65;3.40;;;;;;;;;;5032951;28;20198;-75
2021/10/22 06:15:49;;;;;;;11.57;3.40;;;;;;;;;;5033165;28;20635;-74
2021/10/22 06:18:17;;;;;;;8.30;3.20;;;;;;;;;;5033166;28;20248;-76
2021/10/22 06:20:51;;;;;;;11.18;3.40;;;;;;;;;;5034319;28;20724;-78
2021/10/22 06:26:02;;;;;;;6.78;3.15;;;;;;;;;;5034633;28;20199;-75
2021/10/22 06:28:28;;;;;;;9.55;2.88;;;;;;;;;;5032984;28;20240;-74
2021/10/22 06:30:54;;;;;;;12.45;3.50;;;;;;;;;;5032520;28;20246;-77
2021/10/22 06:33:21;;;;;;;10.35;3.20;;;;;;;;;;5033908;28;20229;-75
2021/10/22 06:35:48;;;;;;;13.10;2.35;;;;;;;;;;5034129;28;20185;-75
2021/10/22 06:38:14;;;;;;;7.30;2.88;;;;;;;;;;5033886;28;20174;-76
2021/10/22 06:40:40;;;;;;;10.50;3.17;;;;;;;;;;5033752;28;20741;-76
2021/10/22 06:43:07;;;;;;;6.77;2.20;;;;;;;;;;5033429;28;20221;-76
2021/10/22 06:45:33;;;;;;;13.32;2.53;;;;;;;;;;5032673;28;20417;-75
2021/10/22 06:47:59;;;;;;;9.85;2.85;;;;;;;;;;5033905;28;20196;-76
2021/10/22 06:50:26;;;;;;;7.40;2.95;;;;;;;;;;5033633;28;20174;-76
2021/10/22 06:52:52;;;;;;;9.35;2.55;;;;;;;;;;5033244;28;20286;-75
2021/10/22 06:55:18;;;;;;;9.00;3.40;;;;;;;;;;5033707;28;20267;-76
2021/10/22 06:57:44;;;;;;;5.88;2.38;;;;;;;;;;5033513;28;20893;-77
2021/10/22 07:00:10;;;;;;;9.38;3.10;;;;;;;;;;5032499;28;20252;-78
2021/10/22 07:02:52;;;;;;;16.88;2.65;;;;;;;;;;5033148;28;20202;-78
2021/10/22 07:08:05;;;;;;;6.57;2.17;;;;;;;;;;5033901;28;20188;-77
2021/10/22 07:10:33;;;;;;;9.02;3.15;;;;;;;;;;5033856;28;20178;-76
2021/10/22 07:12:59;;;;;;;9.48;2.35;;;;;;;;;;5032053;28;20202;-78
2021/10/22 07:15:26;;;;;;;13.40;3.00;;;;;;;;;;5033553;28;20239;-76
2021/10/22 07:17:55;;;;;;;6.05;1.90;;;;;;;;;;5033386;28;20247;-77
2021/10/22 07:20:21;;;;;;;5.78;2.35;;;;;;;;;;5033222;28;20202;-74
2021/10/22 07:22:51;;;;;;;8.05;2.60;;;;;;;;;;5032543;28;20616;-77
2021/10/22 07:25:18;;;;;;;6.10;1.70;;;;;;;;;;5033710;28;20174;-77
2021/10/22 07:27:44;;;;;;;5.15;3.13;;;;;;;;;;5032294;28;20272;-77
2021/10/22 07:30:11;;;;;;;11.38;2.60;;;;;;;;;;5033159;28;20215;-77
2021/10/22 07:32:37;;;;;;;7.07;2.47;;;;;;;;;;5032768;28;20559;-74
2021/10/22 07:35:04;;;;;;;4.63;2.40;;;;;;;;;;5031977;28;20265;-78
2021/10/22 07:37:30;;;;;;;6.38;2.05;;;;;;;;;;5032912;28;20355;-78
2021/10/22 07:39:56;;;;;;;16.17;2.72;;;;;;;;;;5032985;28;20281;-78
2021/10/22 07:42:24;;;;;;;6.20;2.30;;;;;;;;;;5032686;28;20269;-75
2021/10/22 07:45:00;;;;;;;5.30;2.22;;;;;;;;;;5033105;28;20411;-73
2021/10/22 07:47:30;;;;;;;6.88;1.92;;;;;;;;;;5032922;28;20169;-74
2021/10/22 07:49:56;;;;;;;6.63;2.30;;;;;;;;;;5032953;28;20238;-74
2021/10/22 07:52:24;;;;;;;6.38;2.08;;;;;;;;;;5032529;28;20189;-75
2021/10/22 07:54:50;;;;;;;4.93;1.95;;;;;;;;;;5032892;28;20265;-72
2021/10/22 07:57:17;;;;;;;4.40;1.92;;;;;;;;;;5031553;28;20724;-75
2021/10/22 07:59:43;;;;;;;4.72;2.10;;;;;;;;;;5032494;28;20245;-76
2021/10/22 08:02:14;;;;;;;8.40;1.75;;;;;;;;;;5032397;28;20193;-77
2021/10/22 08:04:40;;;;;;;8.77;2.00;;;;;;;;;;5032619;28;20166;-77
2021/10/22 08:07:06;;;;;;;7.45;1.70;;;;;;;;;;5031501;28;20648;-79
2021/10/22 08:09:32;;;;;;;2.65;1.50;;;;;;;;;;5032865;28;20247;-74
2021/10/22 08:11:58;;;;;;;9.75;2.22;;;;;;;;;;5032409;28;20688;-79
2021/10/22 08:14:24;;;;;;;13.07;3.05;;;;;;;;;;5032797;28;20182;-77
2021/10/22 08:16:50;;;;;;;10.02;2.42;;;;;;;;;;5032805;28;20181;-78
2021/10/22 08:19:17;;;;;;;11.80;2.10;;;;;;;;;;5015098;28;20194;-76
2021/10/22 08:24:09;;;;;;;6.77;2.30;;;;;;;;;;5032769;28;20213;-78
2021/10/22 08:26:35;;;;;;;7.97;2.33;;;;;;;;;;5032496;28;20419;-76
2021/10/22 08:29:04;;;;;;;7.72;2.25;;;;;;;;;;5031473;28;20276;-75
2021/10/22 08:31:30;;;;;;;6.57;1.83;;;;;;;;;;5032188;28;20190;-74
2021/10/22 08:33:56;;;;;;;4.90;1.60;;;;;;;;;;5033819;28;20174;-77
2021/10/22 08:36:22;;;;;;;8.15;1.85;;;;;;;;;;5036366;28;20177;-75
2021/10/22 08:38:48;;;;;;;8.40;2.13;;;;;;;;;;5036236;28;20560;-76
2021/10/22 08:41:16;;;;;;;8.80;2.08;;;;;;;;;;5034455;28;20468;-72
2021/10/22 08:43:43;;;;;;;6.32;2.10;;;;;;;;;;5036069;28;20174;-73
2021/10/22 08:46:14;;;;;;;6.22;2.10;;;;;;;;;;5036028;28;20631;-76
2021/10/22 08:48:43;;;;;;;4.93;1.83;;;;;;;;;;5034845;28;20174;-74
2021/10/22 08:51:09;;;;;;;6.07;1.58;;;;;;;;;;5035829;28;20190;-77
2021/10/22 08:53:36;;;;;;;6.10;1.88;;;;;;;;;;5036014;28;20230;-74
2021/10/22 08:56:03;;;;;;;7.00;2.13;;;;;;;;;;5035811;28;20746;-77
2021/10/22 08:58:30;;;;;;;3.58;1.50;;;;;;;;;;5035773;28;20177;-73
2021/10/22 09:00:57;;;;;;;7.63;1.98;;;;;;;;;;5034122;28;20604;-75
2021/10/22 09:03:23;;;;;;;6.72;1.70;;;;;;;;;;5035750;28;20200;-76
2021/10/22 09:05:55;;;;;;;2.70;1.45;;;;;;;;;;5035725;28;20170;-73
2021/10/22 09:08:37;;;;;;;8.93;2.13;;;;;;;;;;5035521;28;20173;-75
2021/10/22 09:11:07;;;;;;;9.70;1.85;;;;;;;;;;5035228;28;20180;-73
2021/10/22 09:13:34;;;;;;;8.13;2.13;;;;;;;;;;5035759;28;20261;-75
2021/10/22 09:16:19;;;;;;;9.18;1.90;;;;;;;;;;5034235;28;20193;-77
2021/10/22 09:18:45;;;;;;;5.30;1.88;;;;;;;;;;5035367;28;20200;-76
2021/10/22 09:21:11;;;;;;;6.50;1.63;;;;;;;;;;5034932;28;20221;-78
2021/10/22 09:23:41;;;;;;;5.87;1.27;;;;;;;;;;5035479;28;20529;-77
2021/10/22 09:26:21;;;;;;;3.10;1.55;;;;;;;;;;5035448;28;20416;-74
2021/10/22 09:28:47;;;;;;;6.00;1.70;;;;;;;;;;5035372;28;20642;-78
2021/10/22 09:31:14;;;;;;;5.47;1.83;;;;;;;;;;5033588;28;20186;-75
2021/10/22 09:33:53;;;;;;;11.07;1.73;;;;;;;;;;5033932;28;20205;-76
2021/10/22 09:36:32;;;;;;;6.18;2.00;;;;;;;;;;5035082;28;20696;-76
2021/10/22 09:39:10;;;;;;;6.72;1.80;;;;;;;;;;5035214;28;20538;-75
2021/10/22 09:41:36;;;;;;;4.22;1.90;;;;;;;;;;5034803;28;20205;-75
2021/10/22 09:44:18;;;;;;;6.03;2.47;;;;;;;;;;5035133;28;20556;-75
2021/10/22 09:46:44;;;;;;;3.83;1.70;;;;;;;;;;5033177;28;20222;-76
2021/10/22 09:49:10;;;;;;;5.72;1.98;;;;;;;;;;5035031;28;20178;-77
2021/10/22 09:51:41;;;;;;;4.53;2.10;;;;;;;;;;5034481;28;20193;-76
2021/10/22 09:54:09;;;;;;;5.00;2.30;;;;;;;;;;5034929;28;20584;-76
2021/10/22 09:56:35;;;;;;;9.83;1.70;;;;;;;;;;5034512;28;20178;-77
2021/10/22 09:59:11;;;;;;;6.77;2.07;;;;;;;;;;5034615;28;20405;-77
2021/10/22 10:01:38;;;;;;;4.38;1.45;;;;;;;;;;5034201;28;20471;-77
2021/10/22 10:04:05;;;;;;;3.30;1.42;;;;;;;;;;5034657;28;20661;-76
2021/10/22 10:06:32;;;;;;;4.75;1.70;;;;;;;;;;5033287;28;20597;-75
2021/10/22 10:08:58;;;;;;;7.75;1.67;;;;;;;;;;5034412;28;20202;-75
2021/10/22 10:11:28;;;;;;;6.85;1.92;;;;;;;;;;5034281;28;20202;-74
2021/10/22 10:14:03;;;;;;;4.47;1.80;;;;;;;;;;5034426;28;20178;-76
2021/10/22 10:16:31;;;;;;;3.85;1.48;;;;;;;;;;5034511;28;20173;-74
2021/10/22 10:19:16;;;;;;;4.78;1.60;;;;;;;;;;5034161;28;20194;-75
2021/10/22 10:21:46;;;;;;;4.45;1.30;;;;;;;;;;5033850;28;20222;-75
2021/10/22 10:24:13;;;;;;;7.05;1.70;;;;;;;;;;5034360;28;20166;-78
2021/10/22 10:26:39;;;;;;;1.70;1.00;;;;;;;;;;5034257;28;20184;-76
2021/10/22 10:29:07;;;;;;;11.10;1.80;;;;;;;;;;5033107;28;20178;-74
2021/10/22 10:31:41;;;;;;;8.60;1.33;;;;;;;;;;5033938;28;20433;-74
2021/10/22 10:34:35;;;;;;;3.72;1.48;;;;;;;;;;5033941;28;20174;-73
2021/10/22 10:37:04;;;;;;;2.90;1.20;;;;;;;;;;5034044;28;20170;-77
2021/10/22 10:39:46;;;;;;;6.22;1.77;;;;;;;;;;5034066;28;20170;-77
2021/10/22 10:42:32;;;;;;;7.50;2.00;;;;;;;;;;5033684;28;20188;-75
2021/10/22 10:44:59;;;;;;;4.30;1.60;;;;;;;;;;5033957;28;20166;-77
2021/10/22 10:47:28;;;;;;;6.47;1.55;;;;;;;;;;5033928;28;20201;-74
2021/10/22 10:49:54;;;;;;;14.52;2.00;;;;;;;;;;5032467;28;20204;-74
2021/10/22 10:52:39;;;;;;;4.10;1.52;;;;;;;;;;5033443;28;20252;-75
2021/10/22 10:55:30;;;;;;;7.53;1.85;;;;;;;;;;5032390;28;20268;-76
2021/10/22 10:57:56;;;;;;;2.72;1.17;;;;;;;;;;5032867;28;20642;-74
2021/10/22 11:00:23;;;;;;;5.03;1.20;;;;;;;;;;5032312;28;20206;-74
2021/10/22 11:03:02;;;;;;;6.13;1.20;;;;;;;;;;5033119;28;20512;-76
2021/10/22 11:05:55;;;;;;;3.95;1.00;;;;;;;;;;5033584;28;20177;-75
2021/10/22 11:08:21;;;;;;;8.32;1.80;;;;;;;;;;5032482;28;20205;-76
2021/10/22 11:13:50;;;;;;;6.18;1.92;;;;;;;;;;5033266;28;20396;-77
2021/10/22 11:16:23;;;;;;;7.90;1.30;;;;;;;;;;5033382;28;20193;-74
2021/10/22 11:19:00;;;;;;;8.50;2.10;;;;;;;;;;5031965;28;20200;-77
2021/10/22 11:21:26;;;;;;;6.68;1.98;;;;;;;;;;5033010;28;20240;-75
2021/10/22 11:23:53;;;;;;;6.47;1.80;;;;;;;;;;5033396;28;20208;-73
2021/10/22 11:26:19;;;;;;;5.90;2.13;;;;;;;;;;5033339;28;20420;-78
2021/10/22 11:28:55;;;;;;;5.63;1.47;;;;;;;;;;5033418;28;20795;-76
2021/10/22 11:31:37;;;;;;;6.53;1.60;;;;;;;;;;5032755;28;20466;-75
2021/10/22 11:34:04;;;;;;;6.30;1.50;;;;;;;;;;5033098;28;20505;-75
2021/10/22 11:36:31;;;;;;;5.60;1.60;;;;;;;;;;5031818;28;20420;-75
2021/10/22 11:38:58;;;;;;;6.30;1.30;;;;;;;;;;5031865;28;20913;-76
2021/10/22 11:41:24;;;;;;;6.40;1.80;;;;;;;;;;5032688;28;20482;-75
2021/10/22 11:44:09;;;;;;;3.60;1.27;;;;;;;;;;5033122;28;20929;-73
2021/10/22 11:46:45;;;;;;;5.90;1.27;;;;;;;;;;5033109;28;20408;-77
2021/10/22 11:49:31;;;;;;;8.00;1.85;;;;;;;;;;5032898;28;20400;-75
2021/10/22 11:51:58;;;;;;;8.90;1.83;;;;;;;;;;5032558;28;20603;-77
2021/10/22 11:54:29;;;;;;;5.40;1.60;;;;;;;;;;5032886;28;20492;-78
2021/10/22 11:56:55;;;;;;;3.97;1.00;;;;;;;;;;5032905;28;20522;-74
2021/10/22 11:59:22;;;;;;;7.17;1.60;;;;;;;;;;5031285;28;20413;-77
2021/10/22 12:01:48;;;;;;;4.07;1.90;;;;;;;;;;5032240;28;20480;-75
2021/10/22 12:04:27;;;;;;;3.67;1.03;;;;;;;;;;5032681;28;20451;-74
2021/10/22 12:07:07;;;;;;;11.27;1.33;;;;;;;;;;5032685;28;20409;-75
2021/10/22 12:09:35;;;;;;;9.27;1.50;;;;;;;;;;5034936;28;20182;-75
2021/10/22 12:12:06;;;;;;;4.90;1.30;;;;;;;;;;5036281;28;20198;-76
2021/10/22 12:14:33;;;;;;;12.55;1.70;;;;;;;;;;5036782;28;20179;-74
2021/10/22 12:17:01;;;;;;;8.13;1.42;;;;;;;;;;5036827;28;20647;-75
2021/10/22 12:19:27;;;;;;;4.80;1.25;;;;;;;;;;5036592;28;20277;-77
2021/10/22 12:21:53;;;;;;;5.00;1.38;;;;;;;;;;5036008;28;20214;-76
2021/10/22 12:24:20;;;;;;;2.65;1.63;;;;;;;;;;5036503;28;20181;-76
2021/10/22 12:26:46;;;;;;;3.15;1.35;;;;;;;;;;5036455;28;20562;-75
2021/10/22 12:29:12;;;;;;;6.67;1.60;;;;;;;;;;5035340;28;20321;-76
2021/10/22 12:31:39;;;;;;;9.02;1.60;;;;;;;;;;5035867;28;20463;-74
2021/10/22 12:34:09;;;;;;;4.75;1.50;;;;;;;;;;5036480;28;20174;-76
2021/10/22 12:36:36;;;;;;;12.25;2.08;;;;;;;;;;5036314;28;20197;-78
2021/10/22 12:39:20;;;;;;;6.60;1.65;;;;;;;;;;5036265;28;20521;-78
2021/10/22 12:41:46;;;;;;;4.67;1.33;;;;;;;;;;5035608;28;20206;-76
2021/10/22 12:44:12;;;;;;;9.90;1.73;;;;;;;;;;5036231;28;20455;-77
2021/10/22 12:46:52;;;;;;;2.08;1.30;;;;;;;;;;5035882;28;20409;-74
2021/10/22 12:49:22;;;;;;;6.88;1.52;;;;;;;;;;5036118;28;20245;-75
2021/10/22 12:51:54;;;;;;;6.15;1.77;;;;;;;;;;5035553;28;20205;-76
2021/10/22 12:54:20;;;;;;;10.82;3.17;;;;;;;;;;5035860;28;20181;-75
2021/10/22 12:56:53;;;;;;;5.47;1.70;;;;;;;;;;5034901;28;20178;-77
2021/10/22 12:59:22;;;;;;;4.25;1.40;;;;;;;;;;5036020;28;21023;-74
2021/10/22 13:01:49;;;;;;;3.85;2.10;;;;;;;;;;5035268;28;20216;-73
2021/10/22 13:04:25;;;;;;;5.78;2.00;;;;;;;;;;5035578;28;20171;-74
2021/10/22 13:09:50;;;;;;;4.85;1.80;;;;;;;;;;5035571;28;20174;-77
2021/10/22 13:15:02;;;;;;;11.13;1.77;;;;;;;;;;5035571;28;20651;-77
2021/10/22 13:22:56;;;;;;;3.15;1.55;;;;;;;;;;5035079;28;20225;-75
2021/10/22 13:25:22;;;;;;;4.75;1.55;;;;;;;;;;5035585;28;20258;-78
2021/10/22 13:27:49;;;;;;;4.03;1.75;;;;;;;;;;5034321;28;20178;-77
2021/10/22 13:30:17;;;;;;;5.05;1.30;;;;;;;;;;5035244;28;20184;-75
2021/10/22 13:32:44;;;;;;;7.00;5.00;;;;;;;;;;5033694;28;20190;-75
2021/10/22 13:35:10;;;;;;;16.98;3.00;;;;;;;;;;5035192;28;20596;-76
2021/10/22 13:37:40;;;;;;;7.95;2.35;;;;;;;;;;5035262;28;20236;-75
2021/10/22 13:40:07;;;;;;;8.90;2.47;;;;;;;;;;5035045;28;20285;-76
2021/10/22 13:42:34;;;;;;;5.65;1.42;;;;;;;;;;5034669;28;20194;-75
2021/10/22 13:45:00;;;;;;;4.05;1.60;;;;;;;;;;5033926;28;20548;-74
2021/10/22 13:47:26;;;;;;;6.88;1.75;;;;;;;;;;5035159;28;20178;-78
2021/10/22 13:49:52;;;;;;;2.08;1.15;;;;;;;;;;5034926;28;20178;-77
2021/10/22 13:52:18;;;;;;;5.30;1.40;;;;;;;;;;5033088;28;20252;-76
2021/10/22 13:54:44;;;;;;;7.60;1.67;;;;;;;;;;5034905;28;20280;-77
2021/10/22 13:57:10;;;;;;;5.70;2.40;;;;;;;;;;5034945;28;20405;-77
2021/10/22 13:59:37;;;;;;;6.73;1.70;;;;;;;;;;5017110;28;20208;-75
2021/10/22 14:02:08;;;;;;;4.78;1.77;;;;;;;;;;5034370;28;20849;-74
2021/10/22 14:04:34;;;;;;;3.70;1.65;;;;;;;;;;5033360;28;20174;-77
2021/10/22 14:07:00;;;;;;;4.50;1.83;;;;;;;;;;5034633;28;20189;-76
2021/10/22 14:09:26;;;;;;;8.38;1.80;;;;;;;;;;5034628;28;20409;-76
2021/10/22 14:11:55;;;;;;;8.20;2.08;;;;;;;;;;5034276;28;20642;-77
2021/10/22 14:25:04;;;;;;;4.60;2.30;;;;;;;;;;5034648;28;20431;-75
2021/10/22 14:30:15;;;;;;;2.83;1.45;;;;;;;;;;5033686;28;20189;-78
2021/10/22 14:32:41;;;;;;;4.27;1.57;;;;;;;;;;5033637;28;20690;-74
2021/10/22 14:35:08;;;;;;;4.10;1.80;;;;;;;;;;5034100;28;20400;-78
2021/10/22 14:37:34;;;;;;;4.47;1.47;;;;;;;;;;5034310;28;20503;-77
2021/10/22 14:40:01;;;;;;;6.90;2.45;;;;;;;;;;5034032;28;20457;-75
2021/10/22 14:42:33;;;;;;;5.93;1.75;;;;;;;;;;5034077;28;20691;-77
2021/10/22 14:45:02;;;;;;;4.57;1.50;;;;;;;;;;5032785;28;20246;-76
2021/10/22 14:47:50;;;;;;;5.17;1.70;;;;;;;;;;5032545;28;20490;-75
2021/10/22 14:50:22;;;;;;;3.08;1.90;;;;;;;;;;5033884;28;20473;-76
2021/10/22 14:57:53;;;;;;;5.55;1.65;;;;;;;;;;5033635;28;20413;-76
2021/10/22 15:00:20;;;;;;;4.78;1.98;;;;;;;;;;5032290;28;20285;-77
2021/10/22 15:02:48;;;;;;;5.70;1.50;;;;;;;;;;5033151;28;20654;-78
2021/10/22 15:05:14;;;;;;;3.85;1.85;;;;;;;;;;5032297;28;20553;-77
2021/10/22 15:07:40;;;;;;;9.50;2.00;;;;;;;;;;5032209;28;20169;-76
2021/10/22 15:10:09;;;;;;;2.78;1.55;;;;;;;;;;5033426;28;20325;-73
2021/10/22 15:12:35;;;;;;;6.30;1.95;;;;;;;;;;5033069;28;20198;-75
2021/10/22 15:15:01;;;;;;;1.85;1.27;;;;;;;;;;5033244;28;20198;-77
2021/10/22 15:17:28;;;;;;;5.63;2.05;;;;;;;;;;5033235;28;20174;-77
2021/10/22 15:19:54;;;;;;;4.25;2.30;;;;;;;;;;5033579;28;20185;-76
2021/10/22 15:22:20;;;;;;;6.37;1.87;;;;;;;;;;5032968;28;20198;-76
2021/10/22 15:24:46;;;;;;;5.65;1.83;;;;;;;;;;5032070;28;20419;-75
2021/10/22 15:27:12;;;;;;;4.05;1.63;;;;;;;;;;5033447;28;20178;-78